sensor_id;sensor_type;location;lat;lon;timestamp;temperature;humidity
21616;DHT22;10970;48.714;9.584;2023-05-07T00:01:45;13.10;99.90
21616;DHT22;10970;48.714;9.584;2023-05-07T00:04:11;13.00;99.90
21616;DHT22;10970;48.714;9.584;2023-05-07T00:06:37;13.00;99.90
21616;DHT22;10970;48.714;9.584;2023-05-07T00:09:02;13.00;99.90
21616;DHT22;10970;48.714;9.584;2023-05-07T00:11:29;12.90;99.90
21616;DHT22;10970;48.714;9.584;2023-05-07T00:13:55;12.90;99.90
21616;DHT22;10970;48.714;9.584;2023-05-07T00:16:21;12.90;99.90
21616;DHT22;10970;48.714;9.584;2023-05-07T00:18:47;12.90;99.90
21616;DHT22;10970;48.714;9.584;2023-05-07T00:21:12;12.90;99.90
21616;DHT22;10970;48.714;9.584;2023-05-07T00:23:38;12.90;99.90
21616;DHT22;10970;48.714;9.584;2023-05-07T00:26:04;12.80;99.90
21616;DHT22;10970;48.714;9.584;2023-05-07T00:28:30;12.80;99.90
21616;DHT22;10970;48.714;9.584;2023-05-07T00:30:55;12.80;99.90
21616;DHT22;10970;48.714;9.584;2023-05-07T00:33:21;12.80;99.90
21616;DHT22;10970;48.714;9.584;2023-05-07T00:35:48;12.80;99.90
21616;DHT22;10970;48.714;9.584;2023-05-07T00:38:14;12.80;99.90
21616;DHT22;10970;48.714;9.584;2023-05-07T00:40:40;12.80;99.90
21616;DHT22;10970;48.714;9.584;2023-05-07T00:43:06;12.80;99.90
21616;DHT22;10970;48.714;9.584;2023-05-07T00:45:33;12.80;99.90
21616;DHT22;10970;48.714;9.584;2023-05-07T00:48:02;12.90;99.90
21616;DHT22;10970;48.714;9.584;2023-05-07T00:50:28;12.80;99.90
21616;DHT22;10970;48.714;9.584;2023-05-07T00:52:55;12.80;99.90
21616;DHT22;10970;48.714;9.584;2023-05-07T00:55:23;12.80;99.90
21616;DHT22;10970;48.714;9.584;2023-05-07T00:57:49;12.80;99.90
21616;DHT22;10970;48.714;9.584;2023-05-07T01:00:16;12.80;99.90
21616;DHT22;10970;48.714;9.584;2023-05-07T01:02:42;12.80;99.90
21616;DHT22;10970;48.714;9.584;2023-05-07T01:05:14;12.80;99.90
21616;DHT22;10970;48.714;9.584;2023-05-07T01:07:41;12.80;99.90
21616;DHT22;10970;48.714;9.584;2023-05-07T01:10:08;12.80;99.90
21616;DHT22;10970;48.714;9.584;2023-05-07T01:12:35;12.90;99.90
21616;DHT22;10970;48.714;9.584;2023-05-07T01:15:03;12.90;99.90
21616;DHT22;10970;48.714;9.584;2023-05-07T01:17:34;12.80;99.90
21616;DHT22;10970;48.714;9.584;2023-05-07T01:19:59;12.80;99.90
21616;DHT22;10970;48.714;9.584;2023-05-07T01:22:33;12.80;99.90
21616;DHT22;10970;48.714;9.584;2023-05-07T01:24:59;12.80;99.90
21616;DHT22;10970;48.714;9.584;2023-05-07T01:27:27;12.80;99.90
21616;DHT22;10970;48.714;9.584;2023-05-07T01:29:53;12.80;99.90
21616;DHT22;10970;48.714;9.584;2023-05-07T01:32:29;12.80;99.90
21616;DHT22;10970;48.714;9.584;2023-05-07T01:34:57;12.80;99.90
21616;DHT22;10970;48.714;9.584;2023-05-07T01:37:25;12.80;99.90
21616;DHT22;10970;48.714;9.584;2023-05-07T01:39:51;12.80;99.90
21616;DHT22;10970;48.714;9.584;2023-05-07T01:42:17;12.80;99.90
21616;DHT22;10970;48.714;9.584;2023-05-07T01:44:43;12.80;99.90
21616;DHT22;10970;48.714;9.584;2023-05-07T01:47:09;12.80;99.90
21616;DHT22;10970;48.714;9.584;2023-05-07T01:49:35;12.80;99.90
21616;DHT22;10970;48.714;9.584;2023-05-07T01:52:01;12.80;99.90
21616;DHT22;10970;48.714;9.584;2023-05-07T01:54:27;12.80;99.90
21616;DHT22;10970;48.714;9.584;2023-05-07T01:56:53;12.80;99.90
21616;DHT22;10970;48.714;9.584;2023-05-07T01:59:19;12.80;99.90
21616;DHT22;10970;48.714;9.584;2023-05-07T02:01:44;12.90;99.90
21616;DHT22;10970;48.714;9.584;2023-05-07T02:04:10;12.90;99.90
21616;DHT22;10970;48.714;9.584;2023-05-07T02:06:36;12.90;99.90
21616;DHT22;10970;48.714;9.584;2023-05-07T02:09:01;12.90;99.90
21616;DHT22;10970;48.714;9.584;2023-05-07T02:11:27;12.90;99.90
21616;DHT22;10970;48.714;9.584;2023-05-07T02:13:53;12.90;99.90
21616;DHT22;10970;48.714;9.584;2023-05-07T02:16:18;12.90;99.90
21616;DHT22;10970;48.714;9.584;2023-05-07T02:18:45;12.90;99.90
21616;DHT22;10970;48.714;9.584;2023-05-07T02:21:10;13.00;99.90
21616;DHT22;10970;48.714;9.584;2023-05-07T02:23:36;13.00;99.90
21616;DHT22;10970;48.714;9.584;2023-05-07T02:26:03;13.00;99.90
21616;DHT22;10970;48.714;9.584;2023-05-07T02:28:29;13.00;99.90
21616;DHT22;10970;48.714;9.584;2023-05-07T02:30:54;13.00;99.90
21616;DHT22;10970;48.714;9.584;2023-05-07T02:33:20;13.00;99.90
21616;DHT22;10970;48.714;9.584;2023-05-07T02:35:46;12.90;99.90
21616;DHT22;10970;48.714;9.584;2023-05-07T02:38:11;12.90;99.90
21616;DHT22;10970;48.714;9.584;2023-05-07T02:40:37;12.80;99.90
21616;DHT22;10970;48.714;9.584;2023-05-07T02:43:05;12.80;99.90
21616;DHT22;10970;48.714;9.584;2023-05-07T02:45:32;12.70;99.90
21616;DHT22;10970;48.714;9.584;2023-05-07T02:47:58;12.60;99.90
21616;DHT22;10970;48.714;9.584;2023-05-07T02:50:23;12.60;99.90
21616;DHT22;10970;48.714;9.584;2023-05-07T02:52:49;12.50;99.90
21616;DHT22;10970;48.714;9.584;2023-05-07T02:55:15;12.40;99.90
21616;DHT22;10970;48.714;9.584;2023-05-07T02:57:41;12.30;99.90
21616;DHT22;10970;48.714;9.584;2023-05-07T03:00:11;12.20;99.90
21616;DHT22;10970;48.714;9.584;2023-05-07T03:02:37;12.20;99.90
21616;DHT22;10970;48.714;9.584;2023-05-07T03:05:03;12.10;99.90
21616;DHT22;10970;48.714;9.584;2023-05-07T03:07:29;12.10;99.90
21616;DHT22;10970;48.714;9.584;2023-05-07T03:09:54;12.10;99.90
21616;DHT22;10970;48.714;9.584;2023-05-07T03:12:20;12.00;99.90
21616;DHT22;10970;48.714;9.584;2023-05-07T03:14:46;12.10;99.90
21616;DHT22;10970;48.714;9.584;2023-05-07T03:17:11;12.10;99.90
21616;DHT22;10970;48.714;9.584;2023-05-07T03:19:37;12.00;99.90
21616;DHT22;10970;48.714;9.584;2023-05-07T03:22:03;12.00;99.90
21616;DHT22;10970;48.714;9.584;2023-05-07T03:24:28;11.90;99.90
21616;DHT22;10970;48.714;9.584;2023-05-07T03:26:54;11.90;99.90
21616;DHT22;10970;48.714;9.584;2023-05-07T03:29:19;11.90;99.90
21616;DHT22;10970;48.714;9.584;2023-05-07T03:31:45;11.80;99.90
21616;DHT22;10970;48.714;9.584;2023-05-07T03:34:11;11.80;99.90
21616;DHT22;10970;48.714;9.584;2023-05-07T03:36:37;11.80;99.90
21616;DHT22;10970;48.714;9.584;2023-05-07T03:39:02;11.80;99.90
21616;DHT22;10970;48.714;9.584;2023-05-07T03:41:28;11.80;99.90
21616;DHT22;10970;48.714;9.584;2023-05-07T03:43:55;11.70;99.90
21616;DHT22;10970;48.714;9.584;2023-05-07T03:46:20;11.70;99.90
21616;DHT22;10970;48.714;9.584;2023-05-07T03:48:46;11.80;99.90
21616;DHT22;10970;48.714;9.584;2023-05-07T03:51:12;11.80;99.90
21616;DHT22;10970;48.714;9.584;2023-05-07T03:53:37;11.80;99.90
21616;DHT22;10970;48.714;9.584;2023-05-07T03:56:03;11.90;99.90
21616;DHT22;10970;48.714;9.584;2023-05-07T03:58:29;11.80;99.90
21616;DHT22;10970;48.714;9.584;2023-05-07T04:00:54;11.80;99.90
21616;DHT22;10970;48.714;9.584;2023-05-07T04:03:20;11.90;99.90
21616;DHT22;10970;48.714;9.584;2023-05-07T04:05:45;11.90;99.90
21616;DHT22;10970;48.714;9.584;2023-05-07T04:08:11;11.90;99.90
21616;DHT22;10970;48.714;9.584;2023-05-07T04:10:37;12.00;99.90
21616;DHT22;10970;48.714;9.584;2023-05-07T04:13:02;12.00;99.90
21616;DHT22;10970;48.714;9.584;2023-05-07T04:15:28;12.10;99.90
21616;DHT22;10970;48.714;9.584;2023-05-07T04:17:54;12.10;99.90
21616;DHT22;10970;48.714;9.584;2023-05-07T04:20:19;12.20;99.90
21616;DHT22;10970;48.714;9.584;2023-05-07T04:22:45;12.30;99.90
21616;DHT22;10970;48.714;9.584;2023-05-07T04:25:11;12.30;99.90
21616;DHT22;10970;48.714;9.584;2023-05-07T04:27:36;12.20;99.90
21616;DHT22;10970;48.714;9.584;2023-05-07T04:30:03;12.20;99.90
21616;DHT22;10970;48.714;9.584;2023-05-07T04:32:30;12.30;99.90
21616;DHT22;10970;48.714;9.584;2023-05-07T04:34:56;12.40;99.90
21616;DHT22;10970;48.714;9.584;2023-05-07T04:37:22;12.50;99.90
21616;DHT22;10970;48.714;9.584;2023-05-07T04:39:48;12.50;99.90
21616;DHT22;10970;48.714;9.584;2023-05-07T04:42:17;12.60;99.90
21616;DHT22;10970;48.714;9.584;2023-05-07T04:44:46;12.70;99.90
21616;DHT22;10970;48.714;9.584;2023-05-07T04:47:12;12.80;99.90
21616;DHT22;10970;48.714;9.584;2023-05-07T04:49:40;12.80;99.90
21616;DHT22;10970;48.714;9.584;2023-05-07T04:52:06;12.80;99.90
21616;DHT22;10970;48.714;9.584;2023-05-07T04:54:32;12.70;99.90
21616;DHT22;10970;48.714;9.584;2023-05-07T04:56:57;12.80;99.90
21616;DHT22;10970;48.714;9.584;2023-05-07T04:59:23;12.90;99.90
21616;DHT22;10970;48.714;9.584;2023-05-07T05:01:49;12.90;99.90
21616;DHT22;10970;48.714;9.584;2023-05-07T05:04:14;13.00;99.90
21616;DHT22;10970;48.714;9.584;2023-05-07T05:06:40;13.20;99.90
21616;DHT22;10970;48.714;9.584;2023-05-07T05:09:06;13.20;99.90
21616;DHT22;10970;48.714;9.584;2023-05-07T05:11:32;13.10;99.90
21616;DHT22;10970;48.714;9.584;2023-05-07T05:13:59;13.00;99.90
21616;DHT22;10970;48.714;9.584;2023-05-07T05:16:25;13.00;99.90
21616;DHT22;10970;48.714;9.584;2023-05-07T05:18:51;13.10;99.90
21616;DHT22;10970;48.714;9.584;2023-05-07T05:21:17;13.20;99.90
21616;DHT22;10970;48.714;9.584;2023-05-07T05:23:43;13.30;99.90
21616;DHT22;10970;48.714;9.584;2023-05-07T05:26:09;13.30;99.90
21616;DHT22;10970;48.714;9.584;2023-05-07T05:28:34;13.40;99.90
21616;DHT22;10970;48.714;9.584;2023-05-07T05:31:00;13.20;99.90
21616;DHT22;10970;48.714;9.584;2023-05-07T05:33:26;13.30;99.90
21616;DHT22;10970;48.714;9.584;2023-05-07T05:35:53;13.60;99.90
21616;DHT22;10970;48.714;9.584;2023-05-07T05:38:18;14.10;99.90
21616;DHT22;10970;48.714;9.584;2023-05-07T05:40:44;14.60;99.90
21616;DHT22;10970;48.714;9.584;2023-05-07T05:43:10;15.00;99.90
21616;DHT22;10970;48.714;9.584;2023-05-07T05:45:35;15.20;99.90
21616;DHT22;10970;48.714;9.584;2023-05-07T05:48:01;15.50;99.90
21616;DHT22;10970;48.714;9.584;2023-05-07T05:50:27;15.70;99.90
21616;DHT22;10970;48.714;9.584;2023-05-07T05:52:52;15.80;99.90
21616;DHT22;10970;48.714;9.584;2023-05-07T05:55:18;16.00;99.90
21616;DHT22;10970;48.714;9.584;2023-05-07T05:57:44;16.20;99.90
21616;DHT22;10970;48.714;9.584;2023-05-07T06:00:10;16.30;99.90
21616;DHT22;10970;48.714;9.584;2023-05-07T06:02:36;16.50;99.90
21616;DHT22;10970;48.714;9.584;2023-05-07T06:05:01;16.60;99.90
21616;DHT22;10970;48.714;9.584;2023-05-07T06:07:27;16.60;99.90
21616;DHT22;10970;48.714;9.584;2023-05-07T06:09:52;16.70;99.90
21616;DHT22;10970;48.714;9.584;2023-05-07T06:12:18;16.80;99.90
21616;DHT22;10970;48.714;9.584;2023-05-07T06:14:44;17.10;99.90
21616;DHT22;10970;48.714;9.584;2023-05-07T06:17:09;17.20;99.90
21616;DHT22;10970;48.714;9.584;2023-05-07T06:19:35;17.10;99.90
21616;DHT22;10970;48.714;9.584;2023-05-07T06:22:01;17.20;99.90
21616;DHT22;10970;48.714;9.584;2023-05-07T06:24:27;17.40;99.90
21616;DHT22;10970;48.714;9.584;2023-05-07T06:26:53;17.60;99.90
21616;DHT22;10970;48.714;9.584;2023-05-07T06:29:19;17.70;99.90
21616;DHT22;10970;48.714;9.584;2023-05-07T06:31:44;18.10;99.90
21616;DHT22;10970;48.714;9.584;2023-05-07T06:34:10;18.60;99.90
21616;DHT22;10970;48.714;9.584;2023-05-07T06:36:40;19.00;99.90
21616;DHT22;10970;48.714;9.584;2023-05-07T06:39:05;19.40;99.90
21616;DHT22;10970;48.714;9.584;2023-05-07T06:41:31;19.50;99.90
21616;DHT22;10970;48.714;9.584;2023-05-07T06:43:57;19.50;99.90
21616;DHT22;10970;48.714;9.584;2023-05-07T06:46:22;19.40;99.90
21616;DHT22;10970;48.714;9.584;2023-05-07T06:48:48;19.30;99.90
21616;DHT22;10970;48.714;9.584;2023-05-07T06:51:14;19.60;99.90
21616;DHT22;10970;48.714;9.584;2023-05-07T06:53:39;19.60;99.90
21616;DHT22;10970;48.714;9.584;2023-05-07T06:56:05;19.90;99.90
21616;DHT22;10970;48.714;9.584;2023-05-07T06:58:31;19.90;99.90
21616;DHT22;10970;48.714;9.584;2023-05-07T07:00:57;19.80;99.90
21616;DHT22;10970;48.714;9.584;2023-05-07T07:03:23;19.60;99.90
21616;DHT22;10970;48.714;9.584;2023-05-07T07:05:52;19.60;99.90
21616;DHT22;10970;48.714;9.584;2023-05-07T07:08:18;19.60;99.90
21616;DHT22;10970;48.714;9.584;2023-05-07T07:10:46;19.30;99.90
21616;DHT22;10970;48.714;9.584;2023-05-07T07:13:12;19.00;99.90
21616;DHT22;10970;48.714;9.584;2023-05-07T07:15:38;18.80;99.90
21616;DHT22;10970;48.714;9.584;2023-05-07T07:18:04;18.70;99.90
21616;DHT22;10970;48.714;9.584;2023-05-07T07:20:30;18.60;99.90
21616;DHT22;10970;48.714;9.584;2023-05-07T07:22:55;18.40;99.90
21616;DHT22;10970;48.714;9.584;2023-05-07T07:25:21;18.40;99.90
21616;DHT22;10970;48.714;9.584;2023-05-07T07:27:46;18.70;99.90
21616;DHT22;10970;48.714;9.584;2023-05-07T07:30:12;19.00;99.90
21616;DHT22;10970;48.714;9.584;2023-05-07T07:32:38;19.40;99.90
21616;DHT22;10970;48.714;9.584;2023-05-07T07:35:04;19.50;99.90
21616;DHT22;10970;48.714;9.584;2023-05-07T07:37:30;19.80;99.90
21616;DHT22;10970;48.714;9.584;2023-05-07T07:39:55;20.00;99.90
21616;DHT22;10970;48.714;9.584;2023-05-07T07:42:21;20.30;99.90
21616;DHT22;10970;48.714;9.584;2023-05-07T07:44:47;20.30;99.90
21616;DHT22;10970;48.714;9.584;2023-05-07T07:47:12;20.60;99.90
21616;DHT22;10970;48.714;9.584;2023-05-07T07:49:38;20.70;99.90
21616;DHT22;10970;48.714;9.584;2023-05-07T07:52:04;20.90;99.90
21616;DHT22;10970;48.714;9.584;2023-05-07T07:54:29;21.20;99.90
21616;DHT22;10970;48.714;9.584;2023-05-07T07:56:55;21.50;99.90
21616;DHT22;10970;48.714;9.584;2023-05-07T07:59:21;22.00;99.90
21616;DHT22;10970;48.714;9.584;2023-05-07T08:01:47;22.60;99.90
21616;DHT22;10970;48.714;9.584;2023-05-07T08:04:15;22.60;99.90
21616;DHT22;10970;48.714;9.584;2023-05-07T08:06:41;22.60;99.90
21616;DHT22;10970;48.714;9.584;2023-05-07T08:09:06;22.70;99.90
21616;DHT22;10970;48.714;9.584;2023-05-07T08:11:32;23.00;99.90
21616;DHT22;10970;48.714;9.584;2023-05-07T08:13:58;23.00;99.90
21616;DHT22;10970;48.714;9.584;2023-05-07T08:16:23;23.40;99.90
21616;DHT22;10970;48.714;9.584;2023-05-07T08:18:49;23.30;99.90
21616;DHT22;10970;48.714;9.584;2023-05-07T08:21:15;22.90;99.90
21616;DHT22;10970;48.714;9.584;2023-05-07T08:23:40;23.30;99.90
21616;DHT22;10970;48.714;9.584;2023-05-07T08:26:08;23.10;99.90
21616;DHT22;10970;48.714;9.584;2023-05-07T08:28:35;23.20;99.90
21616;DHT22;10970;48.714;9.584;2023-05-07T08:31:01;23.20;99.90
21616;DHT22;10970;48.714;9.584;2023-05-07T08:33:27;23.30;99.90
21616;DHT22;10970;48.714;9.584;2023-05-07T08:35:52;23.90;99.90
21616;DHT22;10970;48.714;9.584;2023-05-07T08:38:18;24.00;99.90
21616;DHT22;10970;48.714;9.584;2023-05-07T08:40:44;24.20;99.90
21616;DHT22;10970;48.714;9.584;2023-05-07T08:43:13;24.60;99.90
21616;DHT22;10970;48.714;9.584;2023-05-07T08:45:40;24.70;99.90
21616;DHT22;10970;48.714;9.584;2023-05-07T08:48:09;25.00;99.90
21616;DHT22;10970;48.714;9.584;2023-05-07T08:50:40;25.00;99.90
21616;DHT22;10970;48.714;9.584;2023-05-07T08:53:05;24.80;99.90
21616;DHT22;10970;48.714;9.584;2023-05-07T08:55:31;25.00;99.90
21616;DHT22;10970;48.714;9.584;2023-05-07T08:57:59;24.90;99.90
21616;DHT22;10970;48.714;9.584;2023-05-07T09:00:25;25.00;99.90
21616;DHT22;10970;48.714;9.584;2023-05-07T09:02:51;25.20;99.90
21616;DHT22;10970;48.714;9.584;2023-05-07T09:05:17;25.50;99.90
21616;DHT22;10970;48.714;9.584;2023-05-07T09:07:43;25.30;99.90
21616;DHT22;10970;48.714;9.584;2023-05-07T09:10:09;25.40;99.90
21616;DHT22;10970;48.714;9.584;2023-05-07T09:12:34;25.30;99.90
21616;DHT22;10970;48.714;9.584;2023-05-07T09:15:01;25.30;99.90
21616;DHT22;10970;48.714;9.584;2023-05-07T09:17:28;25.10;99.90
21616;DHT22;10970;48.714;9.584;2023-05-07T09:19:54;25.10;99.90
21616;DHT22;10970;48.714;9.584;2023-05-07T09:22:20;25.10;99.90
21616;DHT22;10970;48.714;9.584;2023-05-07T09:24:50;25.10;99.90
21616;DHT22;10970;48.714;9.584;2023-05-07T09:27:17;24.90;99.90
21616;DHT22;10970;48.714;9.584;2023-05-07T09:29:43;24.50;99.90
21616;DHT22;10970;48.714;9.584;2023-05-07T09:32:09;24.40;99.90
21616;DHT22;10970;48.714;9.584;2023-05-07T09:34:36;24.50;99.90
21616;DHT22;10970;48.714;9.584;2023-05-07T09:37:05;24.70;99.90
21616;DHT22;10970;48.714;9.584;2023-05-07T09:39:47;24.50;99.90
21616;DHT22;10970;48.714;9.584;2023-05-07T09:42:13;24.00;99.90
21616;DHT22;10970;48.714;9.584;2023-05-07T09:44:43;24.10;99.90
21616;DHT22;10970;48.714;9.584;2023-05-07T09:47:10;24.20;99.90
21616;DHT22;10970;48.714;9.584;2023-05-07T09:49:39;24.30;99.90
21616;DHT22;10970;48.714;9.584;2023-05-07T09:52:06;24.30;99.90
21616;DHT22;10970;48.714;9.584;2023-05-07T09:54:35;24.40;99.90
21616;DHT22;10970;48.714;9.584;2023-05-07T09:57:04;24.30;99.90
21616;DHT22;10970;48.714;9.584;2023-05-07T09:59:32;24.20;99.90
21616;DHT22;10970;48.714;9.584;2023-05-07T10:01:59;24.10;99.90
21616;DHT22;10970;48.714;9.584;2023-05-07T10:04:28;24.00;99.90
21616;DHT22;10970;48.714;9.584;2023-05-07T10:06:54;24.00;99.90
21616;DHT22;10970;48.714;9.584;2023-05-07T10:09:21;24.00;99.90
21616;DHT22;10970;48.714;9.584;2023-05-07T10:11:49;24.10;99.90
21616;DHT22;10970;48.714;9.584;2023-05-07T10:14:15;23.90;99.90
21616;DHT22;10970;48.714;9.584;2023-05-07T10:16:41;24.10;99.90
21616;DHT22;10970;48.714;9.584;2023-05-07T10:19:09;24.10;99.90
21616;DHT22;10970;48.714;9.584;2023-05-07T10:21:37;24.00;99.90
21616;DHT22;10970;48.714;9.584;2023-05-07T10:24:08;23.80;99.90
21616;DHT22;10970;48.714;9.584;2023-05-07T10:26:45;23.50;99.90
21616;DHT22;10970;48.714;9.584;2023-05-07T10:29:34;23.40;99.90
21616;DHT22;10970;48.714;9.584;2023-05-07T10:34:43;23.70;99.90
21616;DHT22;10970;48.714;9.584;2023-05-07T10:37:10;23.70;99.90
21616;DHT22;10970;48.714;9.584;2023-05-07T10:39:37;23.60;99.90
21616;DHT22;10970;48.714;9.584;2023-05-07T10:42:10;23.70;99.90
21616;DHT22;10970;48.714;9.584;2023-05-07T10:44:36;23.80;99.90
21616;DHT22;10970;48.714;9.584;2023-05-07T10:47:13;23.80;99.90
21616;DHT22;10970;48.714;9.584;2023-05-07T10:52:22;23.80;99.90
21616;DHT22;10970;48.714;9.584;2023-05-07T10:57:42;23.60;99.90
21616;DHT22;10970;48.714;9.584;2023-05-07T11:05:31;24.00;99.90
21616;DHT22;10970;48.714;9.584;2023-05-07T11:08:02;24.00;99.90
21616;DHT22;10970;48.714;9.584;2023-05-07T11:13:16;24.30;99.90
21616;DHT22;10970;48.714;9.584;2023-05-07T11:15:44;23.80;99.90
21616;DHT22;10970;48.714;9.584;2023-05-07T11:18:11;23.60;99.90
21616;DHT22;10970;48.714;9.584;2023-05-07T11:26:03;24.00;99.90
21616;DHT22;10970;48.714;9.584;2023-05-07T11:28:40;24.20;99.90
21616;DHT22;10970;48.714;9.584;2023-05-07T11:31:07;24.40;99.90
21616;DHT22;10970;48.714;9.584;2023-05-07T11:33:33;24.50;99.90
21616;DHT22;10970;48.714;9.584;2023-05-07T11:36:00;24.40;99.90
21616;DHT22;10970;48.714;9.584;2023-05-07T11:38:28;24.50;99.90
21616;DHT22;10970;48.714;9.584;2023-05-07T11:40:56;24.60;99.90
21616;DHT22;10970;48.714;9.584;2023-05-07T11:43:22;24.70;99.90
21616;DHT22;10970;48.714;9.584;2023-05-07T11:45:49;24.70;99.90
21616;DHT22;10970;48.714;9.584;2023-05-07T11:48:15;24.80;99.90
21616;DHT22;10970;48.714;9.584;2023-05-07T11:50:51;24.90;99.90
21616;DHT22;10970;48.714;9.584;2023-05-07T11:53:20;25.10;99.90
21616;DHT22;10970;48.714;9.584;2023-05-07T11:55:46;25.20;99.90
21616;DHT22;10970;48.714;9.584;2023-05-07T11:58:15;25.20;99.90
21616;DHT22;10970;48.714;9.584;2023-05-07T12:00:53;25.10;99.90
21616;DHT22;10970;48.714;9.584;2023-05-07T12:03:19;25.00;99.90
21616;DHT22;10970;48.714;9.584;2023-05-07T12:05:45;25.10;99.90
21616;DHT22;10970;48.714;9.584;2023-05-07T12:08:18;25.30;99.90
21616;DHT22;10970;48.714;9.584;2023-05-07T12:10:46;25.40;99.90
21616;DHT22;10970;48.714;9.584;2023-05-07T12:13:21;25.30;99.90
21616;DHT22;10970;48.714;9.584;2023-05-07T12:15:50;25.30;99.90
21616;DHT22;10970;48.714;9.584;2023-05-07T12:18:16;25.60;99.90
21616;DHT22;10970;48.714;9.584;2023-05-07T12:20:42;25.10;99.90
21616;DHT22;10970;48.714;9.584;2023-05-07T12:23:08;25.00;99.90
21616;DHT22;10970;48.714;9.584;2023-05-07T12:25:38;25.10;99.90
21616;DHT22;10970;48.714;9.584;2023-05-07T12:28:04;25.10;99.90
21616;DHT22;10970;48.714;9.584;2023-05-07T12:30:32;25.10;99.90
21616;DHT22;10970;48.714;9.584;2023-05-07T12:32:58;25.30;99.90
21616;DHT22;10970;48.714;9.584;2023-05-07T12:35:31;25.50;99.90
21616;DHT22;10970;48.714;9.584;2023-05-07T12:37:58;25.40;99.90
21616;DHT22;10970;48.714;9.584;2023-05-07T12:40:46;25.10;99.90
21616;DHT22;10970;48.714;9.584;2023-05-07T12:43:25;25.20;99.90
21616;DHT22;10970;48.714;9.584;2023-05-07T12:45:53;25.10;99.90
21616;DHT22;10970;48.714;9.584;2023-05-07T12:48:19;25.10;99.90
21616;DHT22;10970;48.714;9.584;2023-05-07T12:50:48;25.00;99.90
21616;DHT22;10970;48.714;9.584;2023-05-07T12:53:14;24.80;99.90
21616;DHT22;10970;48.714;9.584;2023-05-07T12:55:46;24.80;99.90
21616;DHT22;10970;48.714;9.584;2023-05-07T12:58:33;24.70;99.90
21616;DHT22;10970;48.714;9.584;2023-05-07T13:01:01;24.50;99.90
21616;DHT22;10970;48.714;9.584;2023-05-07T13:03:31;24.30;99.90
21616;DHT22;10970;48.714;9.584;2023-05-07T13:06:02;24.00;99.90
21616;DHT22;10970;48.714;9.584;2023-05-07T13:08:33;23.40;99.90
21616;DHT22;10970;48.714;9.584;2023-05-07T13:11:01;23.00;99.90
21616;DHT22;10970;48.714;9.584;2023-05-07T13:13:34;22.70;99.90
21616;DHT22;10970;48.714;9.584;2023-05-07T13:16:01;22.30;99.90
21616;DHT22;10970;48.714;9.584;2023-05-07T13:18:30;22.00;99.90
21616;DHT22;10970;48.714;9.584;2023-05-07T13:20:56;21.70;99.90
21616;DHT22;10970;48.714;9.584;2023-05-07T13:23:22;21.70;99.90
21616;DHT22;10970;48.714;9.584;2023-05-07T13:25:48;21.60;99.90
21616;DHT22;10970;48.714;9.584;2023-05-07T13:28:13;21.60;99.90
21616;DHT22;10970;48.714;9.584;2023-05-07T13:30:39;21.60;99.90
21616;DHT22;10970;48.714;9.584;2023-05-07T13:33:06;21.60;99.90
21616;DHT22;10970;48.714;9.584;2023-05-07T13:35:32;21.60;99.90
21616;DHT22;10970;48.714;9.584;2023-05-07T13:37:58;21.50;99.90
21616;DHT22;10970;48.714;9.584;2023-05-07T13:40:24;21.50;99.90
21616;DHT22;10970;48.714;9.584;2023-05-07T13:42:50;21.40;99.90
21616;DHT22;10970;48.714;9.584;2023-05-07T13:45:17;21.40;99.90
21616;DHT22;10970;48.714;9.584;2023-05-07T13:47:44;21.30;99.90
21616;DHT22;10970;48.714;9.584;2023-05-07T13:50:10;21.00;99.90
21616;DHT22;10970;48.714;9.584;2023-05-07T13:52:42;20.90;99.90
21616;DHT22;10970;48.714;9.584;2023-05-07T13:55:09;20.60;99.90
21616;DHT22;10970;48.714;9.584;2023-05-07T13:57:36;20.40;99.90
21616;DHT22;10970;48.714;9.584;2023-05-07T14:00:04;20.20;99.90
21616;DHT22;10970;48.714;9.584;2023-05-07T14:02:31;20.10;99.90
21616;DHT22;10970;48.714;9.584;2023-05-07T14:04:56;20.00;99.90
21616;DHT22;10970;48.714;9.584;2023-05-07T14:07:22;19.90;99.90
21616;DHT22;10970;48.714;9.584;2023-05-07T14:09:48;19.70;99.90
21616;DHT22;10970;48.714;9.584;2023-05-07T14:12:22;19.70;99.90
21616;DHT22;10970;48.714;9.584;2023-05-07T14:14:48;19.60;99.90
21616;DHT22;10970;48.714;9.584;2023-05-07T14:17:16;19.60;99.90
21616;DHT22;10970;48.714;9.584;2023-05-07T14:19:43;19.50;99.90
21616;DHT22;10970;48.714;9.584;2023-05-07T14:22:09;19.50;99.90
21616;DHT22;10970;48.714;9.584;2023-05-07T14:24:35;19.30;99.90
21616;DHT22;10970;48.714;9.584;2023-05-07T14:27:00;19.10;99.90
21616;DHT22;10970;48.714;9.584;2023-05-07T14:29:26;18.80;99.90
21616;DHT22;10970;48.714;9.584;2023-05-07T14:31:52;18.80;99.90
21616;DHT22;10970;48.714;9.584;2023-05-07T14:34:17;18.70;99.90
21616;DHT22;10970;48.714;9.584;2023-05-07T14:36:43;18.50;99.90
21616;DHT22;10970;48.714;9.584;2023-05-07T14:39:09;18.30;99.90
21616;DHT22;10970;48.714;9.584;2023-05-07T14:41:35;18.20;99.90
21616;DHT22;10970;48.714;9.584;2023-05-07T14:44:01;18.00;99.90
21616;DHT22;10970;48.714;9.584;2023-05-07T14:46:29;17.90;99.90
21616;DHT22;10970;48.714;9.584;2023-05-07T14:48:56;17.70;99.90
21616;DHT22;10970;48.714;9.584;2023-05-07T14:51:23;17.60;99.90
21616;DHT22;10970;48.714;9.584;2023-05-07T14:53:50;17.60;99.90
21616;DHT22;10970;48.714;9.584;2023-05-07T14:56:16;17.40;99.90
21616;DHT22;10970;48.714;9.584;2023-05-07T14:58:42;17.40;99.90
21616;DHT22;10970;48.714;9.584;2023-05-07T15:01:08;17.30;99.90
21616;DHT22;10970;48.714;9.584;2023-05-07T15:03:34;17.20;99.90
21616;DHT22;10970;48.714;9.584;2023-05-07T15:06:01;17.10;99.90
21616;DHT22;10970;48.714;9.584;2023-05-07T15:08:27;17.00;99.90
21616;DHT22;10970;48.714;9.584;2023-05-07T15:10:53;16.90;99.90
21616;DHT22;10970;48.714;9.584;2023-05-07T15:13:21;16.80;99.90
21616;DHT22;10970;48.714;9.584;2023-05-07T15:15:47;16.70;99.90
21616;DHT22;10970;48.714;9.584;2023-05-07T15:18:14;16.50;99.90
21616;DHT22;10970;48.714;9.584;2023-05-07T15:20:40;16.50;99.90
21616;DHT22;10970;48.714;9.584;2023-05-07T15:23:07;16.50;99.90
21616;DHT22;10970;48.714;9.584;2023-05-07T15:25:37;16.40;99.90
21616;DHT22;10970;48.714;9.584;2023-05-07T15:28:03;16.30;99.90
21616;DHT22;10970;48.714;9.584;2023-05-07T15:30:29;16.30;99.90
21616;DHT22;10970;48.714;9.584;2023-05-07T15:32:55;16.30;99.90
21616;DHT22;10970;48.714;9.584;2023-05-07T15:35:21;16.10;99.90
21616;DHT22;10970;48.714;9.584;2023-05-07T15:37:50;16.10;99.90
21616;DHT22;10970;48.714;9.584;2023-05-07T15:40:16;16.00;99.90
21616;DHT22;10970;48.714;9.584;2023-05-07T15:42:44;16.00;99.90
21616;DHT22;10970;48.714;9.584;2023-05-07T15:45:10;15.90;99.90
21616;DHT22;10970;48.714;9.584;2023-05-07T15:47:36;15.90;99.90
21616;DHT22;10970;48.714;9.584;2023-05-07T15:50:02;15.80;99.90